Time;durP1;ratioP1;P1;durP2;ratioP2;P2;SDS_P1;SDS_P2;PMS_P1;PMS_P2;Temp;Humidity;BMP_temperature;BMP_pressure;BME280_temperature;BME280_humidity;BME280_pressure;Samples;Min_cycle;Max_cycle;Signal;HPM_P1;HPM_P2
2024/04/07 00:01:12;;;;;;;2.00;0.73;;;;;;;13.79;100.00;100114.47;6065648;23;20176;-72
2024/04/07 00:03:42;;;;;;;2.03;0.80;;;;;;;13.82;100.00;100122.38;6067155;23;20022;-72
2024/04/07 00:06:12;;;;;;;1.33;0.63;;;;;;;13.75;100.00;100128.88;6067103;23;20030;-72
2024/04/07 00:08:41;;;;;;;2.83;0.75;;;;;;;13.65;100.00;100120.53;6067135;23;20026;-72
2024/04/07 00:11:12;;;;;;;1.70;0.80;;;;;;;13.58;100.00;100143.72;6067014;23;20026;-72
2024/04/07 00:13:45;;;;;;;2.40;1.00;;;;;;;13.95;100.00;100160.25;6067774;23;20027;-72
2024/04/07 00:16:14;;;;;;;2.60;1.10;;;;;;;14.08;100.00;100173.72;6066134;23;20030;-72
2024/04/07 00:18:45;;;;;;;4.85;1.50;;;;;;;14.28;100.00;100187.63;6066078;23;20269;-74
2024/04/07 00:21:16;;;;;;;5.40;1.20;;;;;;;14.30;100.00;100196.13;6065576;23;20073;-74
2024/04/07 00:23:49;;;;;;;3.17;1.25;;;;;;;14.25;100.00;100197.19;6067052;23;20041;-72
2024/04/07 00:26:22;;;;;;;5.65;2.05;;;;;;;14.10;100.00;100198.25;6066100;23;20389;-72
2024/04/07 00:28:54;;;;;;;3.63;1.45;;;;;;;14.01;100.00;100190.63;6066769;23;20127;-72
2024/04/07 00:31:25;;;;;;;2.78;1.10;;;;;;;13.84;100.00;100194.31;6065525;23;20461;-72
2024/04/07 00:33:54;;;;;;;3.22;1.45;;;;;;;13.68;100.00;100193.88;6065528;23;20093;-72
2024/04/07 00:36:23;;;;;;;5.28;1.23;;;;;;;13.71;100.00;100196.22;6066133;23;20042;-72
2024/04/07 00:38:55;;;;;;;2.80;1.00;;;;;;;13.64;100.00;100194.31;6066470;23;20081;-72
2024/04/07 00:41:27;;;;;;;2.63;1.00;;;;;;;13.86;100.00;100194.44;6065881;23;20030;-72
2024/04/07 00:43:57;;;;;;;3.08;1.60;;;;;;;14.30;100.00;100185.69;6066223;23;20052;-72
2024/04/07 00:46:27;;;;;;;3.22;1.30;;;;;;;14.08;100.00;100193.25;6065544;23;20049;-72
2024/04/07 00:48:56;;;;;;;3.90;1.30;;;;;;;14.20;100.00;100193.38;6065416;23;20358;-72
2024/04/07 00:51:27;;;;;;;5.95;1.10;;;;;;;14.06;100.00;100184.00;6066416;23;20072;-72
2024/04/07 00:53:58;;;;;;;6.68;1.33;;;;;;;13.85;100.00;100193.72;6066917;23;20081;-72
2024/04/07 00:56:33;;;;;;;3.83;1.58;;;;;;;13.76;100.00;100186.81;6067244;23;20057;-72
2024/04/07 00:59:04;;;;;;;2.33;1.02;;;;;;;13.67;100.00;100167.31;6067076;23;20026;-72
2024/04/07 01:01:39;;;;;;;6.13;1.00;;;;;;;13.68;100.00;100166.75;6067065;23;20097;-72
2024/04/07 01:04:09;;;;;;;6.78;0.93;;;;;;;13.86;100.00;100161.00;6043546;23;20061;-72
2024/04/07 01:06:39;;;;;;;1.63;0.93;;;;;;;13.97;100.00;100155.53;6066803;23;20108;-72
2024/04/07 01:09:07;;;;;;;2.42;1.20;;;;;;;13.93;100.00;100165.69;6066833;23;20401;-71
2024/04/07 01:11:36;;;;;;;3.47;1.13;;;;;;;14.11;100.00;100174.59;6042152;23;20037;-71
2024/04/07 01:14:09;;;;;;;3.08;1.02;;;;;;;14.30;100.00;100174.53;6066829;23;20026;-72
2024/04/07 01:16:35;;;;;;;3.17;1.33;;;;;;;14.42;100.00;100177.44;6065418;23;20169;-72
2024/04/07 01:19:03;;;;;;;5.10;1.80;;;;;;;14.31;100.00;100175.25;6065525;23;20036;-72
2024/04/07 01:21:31;;;;;;;2.88;1.10;;;;;;;14.47;100.00;100184.75;6065032;23;20409;-72
2024/04/07 01:23:59;;;;;;;4.32;1.10;;;;;;;14.45;100.00;100184.63;6069901;23;20026;-72
2024/04/07 01:26:26;;;;;;;2.60;0.87;;;;;;;14.45;100.00;100184.63;6068242;23;20195;-72
2024/04/07 01:28:53;;;;;;;2.03;0.70;;;;;;;14.31;100.00;100195.53;6065513;23;20026;-72
2024/04/07 01:31:20;;;;;;;1.75;0.80;;;;;;;14.41;100.00;100201.06;6065302;23;20034;-72
2024/04/07 01:33:48;;;;;;;1.95;0.80;;;;;;;14.28;100.00;100215.53;6041740;23;20026;-72
2024/04/07 01:36:14;;;;;;;1.80;0.90;;;;;;;14.09;100.00;100217.00;6066014;23;20086;-72
2024/04/07 01:38:42;;;;;;;3.13;1.08;;;;;;;13.92;100.00;100231.13;6041901;23;20030;-72
2024/04/07 01:41:09;;;;;;;2.90;1.08;;;;;;;13.73;100.00;100235.41;6064908;23;20022;-72
2024/04/07 01:43:37;;;;;;;1.63;0.80;;;;;;;13.63;100.00;100231.16;6064884;23;20105;-72
2024/04/07 01:46:04;;;;;;;2.72;0.80;;;;;;;13.79;100.00;100223.94;6064969;23;20030;-72
2024/04/07 01:48:32;;;;;;;3.40;1.27;;;;;;;14.06;100.00;100206.31;6064751;23;20035;-72
2024/04/07 01:50:58;;;;;;;1.90;0.80;;;;;;;14.10;100.00;100214.97;6065785;23;20023;-72
2024/04/07 01:53:26;;;;;;;1.60;0.70;;;;;;;14.08;100.00;100226.72;6067600;23;20130;-73
2024/04/07 01:55:53;;;;;;;1.73;0.85;;;;;;;13.88;100.00;100230.84;6071690;23;20040;-72
2024/04/07 01:58:22;;;;;;;2.65;0.95;;;;;;;13.89;100.00;100229.53;6084223;23;20049;-73
2024/04/07 02:00:48;;;;;;;3.22;0.80;;;;;;;13.78;100.00;100225.28;6083656;23;20055;-72
2024/04/07 02:03:15;;;;;;;4.43;0.60;;;;;;;13.62;100.00;100238.78;6077477;23;20022;-74
2024/04/07 02:05:43;;;;;;;2.08;0.80;;;;;;;13.61;100.00;100231.00;6065549;23;20026;-72
2024/04/07 02:08:11;;;;;;;2.97;1.10;;;;;;;13.41;100.00;100230.25;6065987;23;20041;-72
2024/04/07 02:10:37;;;;;;;2.97;0.70;;;;;;;13.18;100.00;100214.66;6066754;23;20026;-72
2024/04/07 02:13:05;;;;;;;2.17;0.93;;;;;;;13.03;100.00;100220.47;6066683;23;20026;-72
2024/04/07 02:15:35;;;;;;;2.50;1.33;;;;;;;12.82;100.00;100210.59;6041712;23;20125;-72
2024/04/07 02:18:03;;;;;;;4.55;1.20;;;;;;;12.89;100.00;100212.53;6065303;23;20030;-72
2024/04/07 02:20:30;;;;;;;2.00;0.68;;;;;;;12.83;100.00;100219.66;6066327;23;20022;-73
2024/04/07 02:22:57;;;;;;;2.33;0.80;;;;;;;12.87;100.00;100217.94;6065032;23;20026;-72
2024/04/07 02:25:24;;;;;;;4.57;1.33;;;;;;;12.85;100.00;100217.78;6066984;23;20346;-72
2024/04/07 02:27:51;;;;;;;2.55;0.98;;;;;;;12.83;100.00;100225.25;6066826;23;20038;-72
2024/04/07 02:30:19;;;;;;;4.70;0.85;;;;;;;12.83;100.00;100228.03;6067015;23;20034;-73
2024/04/07 02:32:48;;;;;;;1.85;0.77;;;;;;;13.14;100.00;100225.50;6043090;23;20111;-72
2024/04/07 02:35:15;;;;;;;1.23;0.63;;;;;;;13.42;100.00;100231.72;6043202;23;20030;-72
2024/04/07 02:37:44;;;;;;;1.73;0.93;;;;;;;13.40;100.00;100239.94;6042384;23;20037;-72
2024/04/07 02:40:10;;;;;;;2.85;1.05;;;;;;;13.39;100.00;100255.19;6066541;23;20030;-72
2024/04/07 02:42:38;;;;;;;2.55;0.73;;;;;;;13.23;100.00;100249.09;6066841;23;20030;-72
2024/04/07 02:48:05;;;;;;;1.17;0.60;;;;;;;13.00;100.00;100255.06;6045794;23;20041;-72
2024/04/07 02:50:36;;;;;;;3.47;0.73;;;;;;;13.06;100.00;100253.47;6066727;23;20029;-72
2024/04/07 02:53:04;;;;;;;0.95;0.50;;;;;;;13.09;100.00;100255.09;6066506;23;20030;-72
2024/04/07 02:55:31;;;;;;;7.30;0.70;;;;;;;13.70;100.00;100261.69;6065935;23;20030;-72
2024/04/07 02:57:58;;;;;;;2.33;0.98;;;;;;;13.69;100.00;100268.56;6065765;23;20038;-72
2024/04/07 03:00:26;;;;;;;2.65;0.88;;;;;;;13.56;100.00;100257.84;6065949;23;20525;-72
2024/04/07 03:02:54;;;;;;;2.95;0.75;;;;;;;13.45;100.00;100280.72;6065925;23;20353;-72
2024/04/07 03:05:21;;;;;;;5.93;0.80;;;;;;;13.32;100.00;100271.44;6066514;23;20057;-72
2024/04/07 03:07:50;;;;;;;2.35;1.10;;;;;;;13.23;100.00;100276.97;6066671;23;20062;-72
2024/04/07 03:10:18;;;;;;;2.05;0.95;;;;;;;13.10;100.00;100280.88;6065673;23;20050;-72
2024/04/07 03:12:45;;;;;;;3.43;0.70;;;;;;;12.99;100.00;100289.81;6065416;23;20026;-72
2024/04/07 03:15:13;;;;;;;2.70;0.77;;;;;;;12.85;100.00;100295.00;6066530;23;20600;-72
2024/04/07 03:17:39;;;;;;;2.47;1.05;;;;;;;12.75;100.00;100291.44;6066372;23;20022;-72
2024/04/07 03:20:09;;;;;;;3.30;0.70;;;;;;;12.60;100.00;100306.31;6066363;23;20026;-72
2024/04/07 03:22:35;;;;;;;2.08;0.68;;;;;;;12.50;100.00;100309.03;6064763;23;20508;-72
2024/04/07 03:25:02;;;;;;;0.68;0.38;;;;;;;12.39;100.00;100307.50;6066733;23;20050;-72
2024/04/07 03:27:30;;;;;;;2.58;0.80;;;;;;;12.35;100.00;100317.59;6042406;23;20385;-72
2024/04/07 03:29:57;;;;;;;2.13;0.75;;;;;;;12.29;100.00;100315.06;6066872;23;20643;-72
2024/04/07 03:32:24;;;;;;;1.13;0.50;;;;;;;12.22;100.00;100324.22;6066042;23;20053;-72
2024/04/07 03:34:52;;;;;;;1.73;0.80;;;;;;;12.11;100.00;100322.66;6042463;23;20065;-72
2024/04/07 03:37:21;;;;;;;1.63;0.68;;;;;;;12.02;100.00;100343.53;6066240;23;20025;-72
2024/04/07 03:39:48;;;;;;;2.30;0.95;;;;;;;11.97;100.00;100338.97;6065515;23;20617;-72
2024/04/07 03:42:17;;;;;;;2.38;0.90;;;;;;;11.89;100.00;100341.06;6066237;23;20023;-72
2024/04/07 03:44:45;;;;;;;1.92;0.73;;;;;;;11.84;100.00;100344.78;6066573;23;20030;-72
2024/04/07 03:47:13;;;;;;;1.27;0.63;;;;;;;11.78;100.00;100349.88;6066769;23;20562;-72
2024/04/07 03:49:40;;;;;;;3.22;0.73;;;;;;;11.70;100.00;100355.50;6066457;23;20643;-72
2024/04/07 03:52:07;;;;;;;0.90;0.43;;;;;;;11.61;100.00;100358.91;6065740;23;20022;-72
2024/04/07 03:54:36;;;;;;;1.85;0.80;;;;;;;11.63;100.00;100364.63;6066092;23;20105;-72
2024/04/07 03:57:03;;;;;;;2.17;0.90;;;;;;;11.65;100.00;100361.28;6065644;23;20535;-72
2024/04/07 03:59:31;;;;;;;2.67;0.88;;;;;;;11.66;100.00;100365.53;6065783;23;20030;-72
2024/04/07 04:02:00;;;;;;;1.38;0.90;;;;;;;11.69;100.00;100369.97;6066428;23;20109;-72
2024/04/07 04:04:27;;;;;;;1.40;0.50;;;;;;;11.75;100.00;100370.47;6066247;23;20026;-72
2024/04/07 04:06:54;;;;;;;1.52;0.80;;;;;;;11.73;100.00;100384.19;6041589;23;20472;-72
2024/04/07 04:09:22;;;;;;;2.83;1.00;;;;;;;11.73;100.00;100392.53;6071460;23;20035;-74
2024/04/07 04:11:53;;;;;;;4.22;0.60;;;;;;;11.67;100.00;100400.34;6067292;23;20023;-74
2024/04/07 04:14:20;;;;;;;3.80;0.95;;;;;;;11.59;100.00;100405.97;6066479;23;20030;-74
2024/04/07 04:16:47;;;;;;;1.80;0.60;;;;;;;11.54;100.00;100416.00;6065519;23;20029;-74
2024/04/07 04:19:14;;;;;;;2.92;1.17;;;;;;;11.52;100.00;100415.09;6064601;23;20343;-74
2024/04/07 04:21:41;;;;;;;3.88;0.77;;;;;;;11.43;100.00;100399.81;6064435;23;20026;-74
2024/04/07 04:24:10;;;;;;;6.03;1.20;;;;;;;11.40;100.00;100412.06;6065675;23;20130;-74
2024/04/07 04:26:36;;;;;;;2.00;0.63;;;;;;;11.41;100.00;100427.41;6064473;23;20037;-73
2024/04/07 04:29:05;;;;;;;3.08;1.00;;;;;;;11.51;100.00;100431.03;6065584;23;20088;-74
2024/04/07 04:31:33;;;;;;;2.35;0.77;;;;;;;11.51;100.00;100433.81;6041170;23;20034;-74
2024/04/07 04:34:00;;;;;;;6.43;1.33;;;;;;;11.49;100.00;100430.13;6040115;23;20394;-74
2024/04/07 04:36:27;;;;;;;6.65;2.35;;;;;;;11.60;100.00;100430.44;6064122;23;20038;-74
2024/04/07 04:38:54;;;;;;;4.07;0.93;;;;;;;11.70;100.00;100432.59;6064624;23;20022;-74
2024/04/07 04:41:20;;;;;;;2.15;0.60;;;;;;;11.80;100.00;100427.88;6064573;23;20018;-74
2024/04/07 04:43:48;;;;;;;3.67;0.75;;;;;;;11.98;100.00;100437.00;6065290;23;20030;-73
2024/04/07 04:46:17;;;;;;;1.85;1.27;;;;;;;12.10;100.00;100429.66;6064396;23;20029;-72
2024/04/07 04:48:45;;;;;;;2.88;1.00;;;;;;;12.28;100.00;100438.75;6066197;23;20057;-72
2024/04/07 04:51:12;;;;;;;1.30;0.45;;;;;;;12.27;100.00;100440.09;6042810;23;20029;-72
2024/04/07 04:53:39;;;;;;;2.30;0.73;;;;;;;12.30;100.00;100443.78;6041278;23;20026;-72
2024/04/07 04:56:06;;;;;;;4.30;0.90;;;;;;;12.39;100.00;100463.34;6066083;23;20064;-72
2024/04/07 04:58:34;;;;;;;1.35;0.55;;;;;;;12.52;100.00;100455.97;6066289;23;20026;-73
2024/04/07 05:01:09;;;;;;;4.03;0.75;;;;;;;12.44;100.00;100454.00;6066719;23;20082;-72
2024/04/07 05:03:38;;;;;;;6.10;0.82;;;;;;;12.35;100.00;100460.22;6066182;23;20089;-72
2024/04/07 05:06:07;;;;;;;1.17;0.57;;;;;;;12.40;100.00;100466.84;6065631;23;20354;-72
2024/04/07 05:08:35;;;;;;;1.45;0.70;;;;;;;12.52;100.00;100465.06;6043840;23;20026;-73
2024/04/07 05:11:03;;;;;;;4.15;0.90;;;;;;;12.53;100.00;100463.72;6072781;23;20030;-73
2024/04/07 05:13:31;;;;;;;0.70;0.30;;;;;;;12.52;100.00;100470.63;6078519;23;20785;-73
2024/04/07 05:15:59;;;;;;;4.70;0.80;;;;;;;12.53;100.00;100488.03;6076559;23;20022;-73
2024/04/07 05:18:27;;;;;;;7.13;0.65;;;;;;;12.58;100.00;100500.97;6066295;23;20465;-74
2024/04/07 05:20:55;;;;;;;1.92;0.75;;;;;;;12.65;100.00;100500.16;6065263;23;20027;-74
2024/04/07 05:23:23;;;;;;;2.63;0.93;;;;;;;12.63;100.00;100494.44;6066706;23;20026;-73
2024/04/07 05:25:50;;;;;;;2.13;0.57;;;;;;;12.63;100.00;100497.22;6067296;23;20026;-74
2024/04/07 05:28:18;;;;;;;1.42;0.77;;;;;;;12.68;100.00;100499.00;6067554;23;20105;-73
2024/04/07 05:30:44;;;;;;;2.67;0.93;;;;;;;12.74;100.00;100507.13;6067348;23;20037;-73
2024/04/07 05:33:11;;;;;;;2.47;0.77;;;;;;;12.84;100.00;100511.47;6068854;23;20069;-73
2024/04/07 05:35:38;;;;;;;2.15;0.70;;;;;;;12.89;100.00;100509.75;6067783;23;20495;-74
2024/04/07 05:38:07;;;;;;;3.85;1.00;;;;;;;13.01;100.00;100512.78;6067802;23;20053;-73
2024/04/07 05:40:34;;;;;;;2.92;1.27;;;;;;;13.13;100.00;100519.31;6065966;23;20132;-73
2024/04/07 05:43:01;;;;;;;1.55;0.57;;;;;;;13.25;100.00;100523.06;6067097;23;20031;-74
2024/04/07 05:45:27;;;;;;;5.93;1.20;;;;;;;13.32;100.00;100525.03;6066979;23;20540;-73
2024/04/07 05:47:55;;;;;;;1.13;0.65;;;;;;;13.37;100.00;100526.06;6065655;23;20465;-74
2024/04/07 05:50:21;;;;;;;2.80;0.93;;;;;;;13.48;100.00;100522.78;6042054;23;20065;-73
2024/04/07 05:52:49;;;;;;;5.38;0.90;;;;;;;13.67;100.00;100527.69;6065288;23;20049;-73
2024/04/07 05:55:17;;;;;;;2.20;0.70;;;;;;;13.87;100.00;100530.59;6065302;23;20034;-73
2024/04/07 05:57:45;;;;;;;8.43;1.17;;;;;;;14.05;100.00;100531.25;6065657;23;20030;-73
2024/04/07 06:00:12;;;;;;;1.77;0.60;;;;;;;14.33;100.00;100536.16;6065731;23;20437;-73
2024/04/07 06:02:39;;;;;;;0.98;0.40;;;;;;;14.46;100.00;100542.66;6088827;23;20089;-73
2024/04/07 06:05:06;;;;;;;2.08;0.60;;;;;;;14.57;100.00;100539.34;6064794;23;20022;-73
2024/04/07 06:07:33;;;;;;;1.92;0.65;;;;;;;14.69;100.00;100547.84;6064701;23;20030;-73
2024/04/07 06:10:00;;;;;;;0.80;0.30;;;;;;;14.78;100.00;100549.94;6064717;23;20543;-73
2024/04/07 06:12:30;;;;;;;2.42;0.82;;;;;;;14.81;100.00;100545.94;6041386;23;20049;-73
2024/04/07 06:14:57;;;;;;;2.45;0.52;;;;;;;14.85;100.00;100549.06;6065409;23;20018;-73
2024/04/07 06:17:25;;;;;;;2.78;0.65;;;;;;;14.89;100.00;100552.16;6065272;23;20026;-73
2024/04/07 06:19:51;;;;;;;1.38;0.60;;;;;;;15.00;100.00;100548.75;6065146;23;20125;-73
2024/04/07 06:22:19;;;;;;;2.80;0.82;;;;;;;15.18;100.00;100554.19;6064255;23;20029;-73
2024/04/07 06:24:47;;;;;;;4.35;1.13;;;;;;;15.51;100.00;100556.50;6064835;23;20082;-73
2024/04/07 06:27:15;;;;;;;2.70;1.25;;;;;;;15.94;100.00;100565.09;6089041;23;20026;-73
2024/04/07 06:29:43;;;;;;;2.17;0.80;;;;;;;16.47;100.00;100577.06;6064883;23;20030;-73
2024/04/07 06:32:10;;;;;;;5.68;0.30;;;;;;;16.88;100.00;100576.94;6064159;23;20671;-73
2024/04/07 06:34:37;;;;;;;1.45;0.38;;;;;;;17.33;100.00;100582.63;6064548;23;20026;-73
2024/04/07 06:37:04;;;;;;;4.70;0.77;;;;;;;17.65;100.00;100595.16;6064473;23;20030;-73
2024/04/07 06:39:31;;;;;;;1.92;0.30;;;;;;;17.89;100.00;100601.56;6064396;23;20026;-73
2024/04/07 06:41:58;;;;;;;1.35;0.45;;;;;;;18.01;100.00;100605.13;6064217;23;20026;-72
2024/04/07 06:44:25;;;;;;;7.85;0.50;;;;;;;18.18;100.00;100622.97;6064118;23;20084;-73
2024/04/07 06:46:54;;;;;;;3.25;0.50;;;;;;;18.45;100.00;100634.44;6063989;23;20082;-73
2024/04/07 06:49:21;;;;;;;4.03;0.80;;;;;;;18.61;100.00;100640.28;6063753;23;20496;-73
2024/04/07 06:51:50;;;;;;;3.50;0.65;;;;;;;18.67;100.00;100653.97;6065261;23;20109;-73
2024/04/07 06:54:17;;;;;;;4.18;0.88;;;;;;;18.83;100.00;100654.94;6063962;23;20026;-73
2024/04/07 06:56:44;;;;;;;3.72;0.70;;;;;;;19.20;100.00;100648.59;6064693;23;20030;-73
2024/04/07 06:59:10;;;;;;;2.05;0.60;;;;;;;19.47;100.00;100638.84;6066209;23;20037;-74
2024/04/07 07:01:38;;;;;;;1.27;0.25;;;;;;;19.76;100.00;100644.72;6066322;23;20023;-74
2024/04/07 07:04:06;;;;;;;1.98;0.50;;;;;;;19.89;96.11;100648.91;6066225;23;20033;-74
2024/04/07 07:06:33;;;;;;;2.15;0.60;;;;;;;19.88;95.17;100655.16;6078147;23;20022;-75
2024/04/07 07:09:00;;;;;;;1.70;0.57;;;;;;;20.09;93.77;100643.63;6087146;23;20026;-74
2024/04/07 07:11:29;;;;;;;6.95;0.50;;;;;;;20.21;88.15;100654.09;6086112;23;20111;-74
2024/04/07 07:13:56;;;;;;;3.03;0.63;;;;;;;20.41;81.04;100661.53;6087131;23;20041;-74
2024/04/07 07:16:24;;;;;;;2.88;0.73;;;;;;;20.44;82.19;100665.16;6086053;23;20030;-74
2024/04/07 07:18:51;;;;;;;2.10;0.47;;;;;;;20.47;82.32;100657.56;6086148;23;20038;-73
2024/04/07 07:21:19;;;;;;;1.85;0.50;;;;;;;20.44;83.11;100665.16;6080502;23;20025;-74
2024/04/07 07:23:46;;;;;;;2.33;0.50;;;;;;;20.41;83.52;100666.44;6066782;23;20536;-74
2024/04/07 07:26:13;;;;;;;2.97;0.90;;;;;;;20.48;85.02;100678.75;6067015;23;20270;-74
2024/04/07 07:28:40;;;;;;;2.70;0.55;;;;;;;20.55;89.44;100691.84;6066867;23;20026;-74
2024/04/07 07:31:10;;;;;;;2.15;0.65;;;;;;;20.60;84.99;100705.50;6066567;23;20037;-72
2024/04/07 07:33:37;;;;;;;7.07;0.57;;;;;;;20.46;89.23;100710.38;6067226;23;20030;-72
2024/04/07 07:36:05;;;;;;;3.95;0.70;;;;;;;20.18;93.12;100704.69;6072141;23;20032;-72
2024/04/07 07:38:33;;;;;;;4.45;0.60;;;;;;;20.12;90.53;100701.53;6072369;23;20037;-73
2024/04/07 07:41:06;;;;;;;3.53;0.60;;;;;;;20.16;88.39;100698.22;6087744;23;20019;-73
2024/04/07 07:43:33;;;;;;;1.58;0.50;;;;;;;20.37;90.06;100706.38;6069648;23;20030;-74
2024/04/07 07:46:00;;;;;;;2.05;0.70;;;;;;;20.46;86.68;100707.56;6067348;23;20045;-74
2024/04/07 07:48:27;;;;;;;0.88;0.40;;;;;;;20.48;90.31;100699.22;6046889;23;20056;-71
2024/04/07 07:50:54;;;;;;;1.13;0.45;;;;;;;20.63;87.76;100694.34;6090811;23;20022;-72
2024/04/07 07:53:21;;;;;;;3.75;0.50;;;;;;;20.49;90.56;100688.66;6091753;23;20010;-72
2024/04/07 07:55:54;;;;;;;0.75;0.20;;;;;;;20.75;93.68;100692.16;6089739;23;20030;-72
2024/04/07 07:58:20;;;;;;;1.08;0.32;;;;;;;20.88;91.21;100693.50;6087756;23;20030;-72
2024/04/07 08:00:48;;;;;;;2.53;0.77;;;;;;;20.94;86.26;100693.81;6068768;23;20465;-74
2024/04/07 08:03:15;;;;;;;1.08;0.40;;;;;;;21.25;86.69;100691.13;6066262;23;20026;-74
2024/04/07 08:05:42;;;;;;;0.65;0.30;;;;;;;21.69;83.18;100699.63;6065748;23;20026;-73
2024/04/07 08:08:10;;;;;;;2.83;0.57;;;;;;;21.74;81.70;100709.00;6041738;23;20033;-74
2024/04/07 08:10:38;;;;;;;1.27;0.28;;;;;;;22.33;73.78;100715.31;6066180;23;20027;-73
2024/04/07 08:13:06;;;;;;;2.17;0.60;;;;;;;22.90;71.35;100730.50;6066192;23;20056;-73
2024/04/07 08:15:35;;;;;;;1.13;0.45;;;;;;;23.41;70.55;100732.63;6042054;23;20117;-74
2024/04/07 08:18:05;;;;;;;5.97;0.43;;;;;;;23.45;72.95;100729.97;6067752;23;20029;-73
2024/04/07 08:20:40;;;;;;;2.80;0.90;;;;;;;23.37;68.64;100730.38;6068754;23;20673;-74
2024/04/07 08:23:08;;;;;;;1.55;0.70;;;;;;;23.64;66.77;100739.19;6069270;23;20520;-74
2024/04/07 08:25:38;;;;;;;2.13;0.40;;;;;;;24.17;62.70;100739.19;6076373;23;20093;-75
2024/04/07 08:28:26;;;;;;;1.70;0.35;;;;;;;23.60;64.34;100746.16;6076742;23;20159;-73
2024/04/07 08:31:10;;;;;;;4.90;1.25;;;;;;;23.40;65.13;100740.41;6069208;23;20031;-75
2024/04/07 08:33:37;;;;;;;1.13;0.30;;;;;;;24.02;60.46;100752.09;6041997;23;20034;-74
2024/04/07 08:36:05;;;;;;;0.85;0.40;;;;;;;24.53;55.98;100746.88;6040893;23;20061;-75
2024/04/07 08:38:34;;;;;;;3.70;0.52;;;;;;;24.70;59.17;100753.88;6067188;23;20376;-74
2024/04/07 08:41:00;;;;;;;6.57;0.47;;;;;;;25.00;59.04;100742.88;6068851;23;20026;-75
2024/04/07 08:43:31;;;;;;;0.95;0.20;;;;;;;25.61;56.39;100750.63;6098329;23;20464;-74
2024/04/07 08:45:58;;;;;;;3.78;0.52;;;;;;;25.57;53.16;100746.91;6094078;23;20033;-74
2024/04/07 08:48:26;;;;;;;3.25;0.50;;;;;;;25.45;52.90;100747.97;6093234;23;20488;-75
2024/04/07 08:50:55;;;;;;;1.70;0.40;;;;;;;25.22;54.64;100752.19;6093904;23;20117;-74
2024/04/07 08:53:23;;;;;;;1.98;0.32;;;;;;;24.87;53.45;100765.16;6093543;23;20540;-75
2024/04/07 08:55:50;;;;;;;5.35;0.75;;;;;;;25.21;53.86;100761.38;6093199;23;20029;-74
2024/04/07 08:58:18;;;;;;;2.65;0.95;;;;;;;25.37;53.61;100764.00;6093181;23;20026;-75
2024/04/07 09:00:51;;;;;;;1.15;0.40;;;;;;;26.04;49.39;100766.19;6092783;23;20321;-75
2024/04/07 09:03:20;;;;;;;0.68;0.20;;;;;;;26.18;50.93;100758.09;6092906;23;20072;-76
2024/04/07 09:05:49;;;;;;;;;;;;;;;26.32;48.27;100757.78;6069751;23;20032;-75
2024/04/07 09:08:18;;;;;;;2.95;0.63;;;;;;;26.50;50.81;100763.28;6093601;23;19916;-75
2024/04/07 09:10:44;;;;;;;1.90;0.50;;;;;;;25.99;53.12;100761.03;6094337;23;20033;-75
2024/04/07 09:13:12;;;;;;;0.80;0.43;;;;;;;26.05;54.25;100767.66;6097195;23;20026;-74
2024/04/07 09:15:39;;;;;;;2.15;0.73;;;;;;;26.50;49.30;100759.72;6095901;23;20058;-75
2024/04/07 09:18:08;;;;;;;2.15;0.60;;;;;;;25.50;50.55;100760.94;6095022;23;20029;-75
2024/04/07 09:20:35;;;;;;;2.22;0.60;;;;;;;25.38;53.46;100762.66;6093439;23;20044;-74
2024/04/07 09:23:03;;;;;;;1.35;0.60;;;;;;;25.68;50.13;100760.78;6091661;23;20029;-76
2024/04/07 09:25:29;;;;;;;5.28;0.85;;;;;;;25.77;50.08;100763.88;6094638;23;20053;-74
2024/04/07 09:28:00;;;;;;;2.35;0.40;;;;;;;25.77;52.91;100756.09;6093110;23;20049;-74
2024/04/07 09:30:26;;;;;;;1.17;0.40;;;;;;;25.80;54.41;100754.06;6093213;23;20490;-75
2024/04/07 09:32:57;;;;;;;2.63;0.80;;;;;;;26.21;51.73;100746.78;6093220;23;20476;-74
2024/04/07 09:35:26;;;;;;;1.00;0.30;;;;;;;26.74;49.77;100742.63;6092311;23;20048;-75
2024/04/07 09:37:55;;;;;;;2.10;0.77;;;;;;;25.53;55.82;100734.03;6093923;23;20088;-75
2024/04/07 09:40:23;;;;;;;1.42;0.45;;;;;;;26.38;49.88;100732.38;6077318;23;20093;-75
2024/04/07 09:42:56;;;;;;;1.95;0.73;;;;;;;26.60;52.00;100731.56;6063370;23;20018;-74
2024/04/07 09:45:25;;;;;;;6.13;0.70;;;;;;;26.65;48.73;100732.41;6063955;23;20076;-75
2024/04/07 09:47:58;;;;;;;1.45;0.30;;;;;;;26.75;48.85;100735.53;6065321;23;20037;-75
2024/04/07 09:50:32;;;;;;;3.78;0.70;;;;;;;26.65;48.29;100743.78;6064776;23;20030;-74
2024/04/07 09:53:06;;;;;;;1.88;0.50;;;;;;;26.37;52.46;100741.56;6064504;23;20023;-75
2024/04/07 09:55:37;;;;;;;1.52;0.35;;;;;;;26.47;48.66;100747.53;6064322;23;20098;-75
2024/04/07 09:58:06;;;;;;;1.08;0.40;;;;;;;26.26;53.20;100731.28;6065385;23;20034;-76
2024/04/07 10:00:33;;;;;;;1.90;0.60;;;;;;;26.34;50.72;100729.41;6064319;23;20024;-74
2024/04/07 10:03:03;;;;;;;4.80;0.60;;;;;;;26.20;50.25;100734.69;6069412;23;20085;-75
2024/04/07 10:05:32;;;;;;;2.92;0.85;;;;;;;26.21;53.35;100738.25;6065361;23;20026;-75
2024/04/07 10:08:00;;;;;;;5.95;0.70;;;;;;;26.06;53.10;100729.28;6063777;23;20442;-75
2024/04/07 10:10:27;;;;;;;2.88;0.90;;;;;;;26.91;48.66;100730.28;6064336;23;20416;-75
2024/04/07 10:12:55;;;;;;;3.60;0.65;;;;;;;26.29;49.65;100724.28;6064128;23;20073;-75
2024/04/07 10:15:23;;;;;;;3.95;0.77;;;;;;;25.91;54.64;100721.72;6064033;23;20038;-75
2024/04/07 10:17:50;;;;;;;1.90;0.50;;;;;;;26.30;49.07;100726.44;6064797;23;20037;-75
2024/04/07 10:20:19;;;;;;;3.40;0.93;;;;;;;26.29;54.69;100721.44;6064687;23;20022;-73
2024/04/07 10:22:50;;;;;;;4.65;0.93;;;;;;;26.22;55.10;100722.66;6063882;23;20101;-75
2024/04/07 10:25:16;;;;;;;5.68;0.70;;;;;;;25.97;52.63;100719.09;6065918;23;20050;-75
2024/04/07 10:27:45;;;;;;;1.55;0.50;;;;;;;26.34;52.65;100723.00;6086030;23;20074;-74
2024/04/07 10:30:15;;;;;;;2.88;0.50;;;;;;;25.81;55.73;100710.75;6059419;23;20050;-75
2024/04/07 10:32:43;;;;;;;3.58;0.63;;;;;;;25.85;56.12;100710.16;6066064;23;20037;-76
2024/04/07 10:35:11;;;;;;;2.22;0.68;;;;;;;26.02;52.88;100712.13;6066398;23;20030;-75
2024/04/07 10:37:41;;;;;;;4.80;0.65;;;;;;;25.77;56.04;100704.19;6067066;23;20056;-76
2024/04/07 10:40:09;;;;;;;3.78;0.98;;;;;;;26.21;52.81;100709.81;6066668;23;20030;-74
2024/04/07 10:42:40;;;;;;;2.42;0.40;;;;;;;26.59;51.60;100701.66;6043347;23;20107;-76
2024/04/07 10:45:07;;;;;;;2.38;0.47;;;;;;;26.36;54.40;100703.16;6067533;23;20029;-75
2024/04/07 10:47:38;;;;;;;1.15;0.40;;;;;;;25.99;54.04;100704.94;6019687;23;20030;-75
2024/04/07 10:50:07;;;;;;;3.80;0.57;;;;;;;25.84;53.84;100703.75;6068884;23;20433;-76
2024/04/07 10:52:36;;;;;;;;;;;;;;;26.68;54.54;100686.28;6067984;23;20041;-74
2024/04/07 10:55:04;;;;;;;1.67;0.50;;;;;;;25.48;55.44;100680.59;6066402;23;19921;-74
2024/04/07 10:57:33;;;;;;;3.00;0.82;;;;;;;25.75;54.69;100687.84;6069412;23;20030;-74
2024/04/07 10:59:59;;;;;;;4.38;0.68;;;;;;;25.30;57.44;100681.47;6067351;23;20030;-76
2024/04/07 11:02:30;;;;;;;7.47;1.10;;;;;;;24.36;55.79;100680.34;6068750;23;20022;-75
2024/04/07 11:04:59;;;;;;;2.88;0.63;;;;;;;25.24;55.16;100686.94;6067543;23;20081;-76
2024/04/07 11:07:28;;;;;;;4.90;0.53;;;;;;;25.59;56.23;100673.13;6068391;23;20026;-75
2024/04/07 11:10:00;;;;;;;2.72;0.82;;;;;;;25.46;52.60;100678.41;6047324;23;20038;-76
2024/04/07 11:12:28;;;;;;;5.22;0.85;;;;;;;25.43;56.92;100676.19;6077664;23;20022;-74
2024/04/07 11:14:57;;;;;;;3.40;0.80;;;;;;;25.95;50.72;100667.84;6083635;23;20089;-74
2024/04/07 11:17:27;;;;;;;3.78;0.50;;;;;;;26.06;55.05;100663.91;6048009;23;20030;-74
2024/04/07 11:19:55;;;;;;;1.10;0.30;;;;;;;26.54;50.37;100671.66;6070343;23;20026;-74
2024/04/07 11:22:23;;;;;;;7.38;0.70;;;;;;;26.52;49.79;100672.28;6065310;23;20116;-75
2024/04/07 11:24:49;;;;;;;2.78;0.55;;;;;;;26.03;49.94;100673.75;6069486;23;20056;-75
2024/04/07 11:27:18;;;;;;;7.57;1.45;;;;;;;26.05;50.39;100678.78;6074924;23;20049;-74
2024/04/07 11:29:45;;;;;;;2.72;0.93;;;;;;;26.48;48.63;100680.72;6049227;23;20022;-74